Time;durP1;ratioP1;P1;durP2;ratioP2;P2;SDS_P1;SDS_P2;PMS_P1;PMS_P2;Temp;Humidity;BMP_temperature;BMP_pressure;BME280_temperature;BME280_humidity;BME280_pressure;Samples;Min_cycle;Max_cycle;Signal;HPM_P1;HPM_P2
2021/01/26 00:01:39;;;;;;;10.57;6.32;;;;;;;3.48;47.58;100670.66;5059720;28;20508;-68
2021/01/26 00:04:07;;;;;;;10.20;5.82;;;;;;;3.50;47.54;100674.16;5061061;28;20044;-68
2021/01/26 00:06:34;;;;;;;8.25;5.68;;;;;;;3.51;47.47;100673.19;5056758;28;20032;-68
2021/01/26 00:09:01;;;;;;;11.05;5.90;;;;;;;3.51;47.61;100670.47;5052018;28;20048;-68
2021/01/26 00:11:29;;;;;;;10.40;6.10;;;;;;;3.53;47.38;100670.41;5064496;28;20124;-68
2021/01/26 00:13:57;;;;;;;10.57;5.70;;;;;;;3.53;47.50;100668.56;5040311;28;20057;-68
2021/01/26 00:16:26;;;;;;;9.88;5.60;;;;;;;3.53;47.61;100673.97;5056849;28;20487;-68
2021/01/26 00:18:53;;;;;;;9.40;6.50;;;;;;;3.54;47.62;100677.50;5053099;28;20045;-68
2021/01/26 00:21:21;;;;;;;11.15;6.80;;;;;;;3.53;47.54;100676.69;5053161;28;20139;-68
2021/01/26 00:23:48;;;;;;;11.38;6.18;;;;;;;3.54;47.78;100670.28;5061559;28;20036;-68
2021/01/26 00:26:18;;;;;;;10.43;6.30;;;;;;;3.58;47.89;100684.50;5052651;28;20045;-68
2021/01/26 00:28:46;;;;;;;10.50;5.93;;;;;;;3.56;47.70;100695.41;5060813;28;20049;-68
2021/01/26 00:31:14;;;;;;;11.23;5.50;;;;;;;3.57;47.77;100691.75;5060545;28;20048;-68
2021/01/26 00:33:41;;;;;;;9.88;5.55;;;;;;;3.57;47.85;100688.16;5064461;28;20060;-68
2021/01/26 00:36:09;;;;;;;10.70;5.47;;;;;;;3.58;47.66;100673.69;5056230;28;20040;-68
2021/01/26 00:38:36;;;;;;;11.23;5.80;;;;;;;3.59;47.88;100692.53;5055959;28;20045;-69
2021/01/26 00:41:03;;;;;;;9.90;6.28;;;;;;;3.57;47.88;100693.56;5060574;28;20499;-69
2021/01/26 00:43:30;;;;;;;8.95;5.72;;;;;;;3.59;47.74;100689.81;5061315;28;20171;-69
2021/01/26 00:45:58;;;;;;;9.48;5.60;;;;;;;3.61;48.19;100693.34;5065678;28;20036;-69
2021/01/26 00:48:26;;;;;;;11.02;5.30;;;;;;;3.59;47.94;100676.28;5053891;28;20124;-69
2021/01/26 00:50:59;;;;;;;10.75;5.35;;;;;;;3.62;48.63;100677.97;5056876;28;20040;-69
2021/01/26 00:53:26;;;;;;;12.88;6.10;;;;;;;3.58;48.29;100684.50;5049378;28;20045;-70
2021/01/26 00:56:04;;;;;;;10.25;6.05;;;;;;;3.59;48.21;100687.13;5065811;28;20036;-69
2021/01/26 00:58:32;;;;;;;12.00;5.97;;;;;;;3.59;48.03;100678.13;5053763;28;20110;-69
2021/01/26 01:01:00;;;;;;;10.25;6.28;;;;;;;3.60;48.35;100680.75;5058157;28;20032;-69
2021/01/26 01:03:31;;;;;;;10.23;5.67;;;;;;;3.59;48.46;100678.13;5050411;28;20051;-69
2021/01/26 01:05:59;;;;;;;11.82;6.13;;;;;;;3.60;48.45;100679.88;5066258;28;20422;-69
2021/01/26 01:08:26;;;;;;;8.60;5.10;;;;;;;3.61;48.38;100682.53;5059970;28;20522;-69
2021/01/26 01:10:54;;;;;;;8.77;5.57;;;;;;;3.60;48.38;100686.16;5058259;28;20057;-70
2021/01/26 01:13:21;;;;;;;11.02;5.32;;;;;;;3.60;48.39;100688.88;5057369;28;20502;-70
2021/01/26 01:15:49;;;;;;;10.27;5.47;;;;;;;3.62;48.37;100688.78;5052502;28;20063;-69
2021/01/26 01:18:17;;;;;;;9.50;5.50;;;;;;;3.63;48.57;100690.53;5058145;28;20053;-71
2021/01/26 01:20:45;;;;;;;10.68;5.95;;;;;;;3.60;48.44;100688.88;5054500;28;20117;-69
2021/01/26 01:23:12;;;;;;;9.35;5.30;;;;;;;3.60;48.62;100694.28;5064969;28;20102;-69
2021/01/26 01:25:39;;;;;;;10.35;4.95;;;;;;;3.61;48.50;100687.94;5052200;28;20369;-69
2021/01/26 01:28:07;;;;;;;11.45;6.32;;;;;;;3.59;48.43;100683.53;5056194;28;20127;-69
2021/01/26 01:30:35;;;;;;;10.63;5.70;;;;;;;3.60;48.73;100696.97;5064944;28;20055;-69
2021/01/26 01:33:05;;;;;;;12.23;5.82;;;;;;;3.62;48.42;100697.75;5061617;28;20117;-69
2021/01/26 01:35:33;;;;;;;10.25;6.00;;;;;;;3.61;48.73;100698.75;5061007;28;20108;-69
2021/01/26 01:38:01;;;;;;;11.35;6.28;;;;;;;3.60;48.70;100705.09;5060248;28;20079;-69
2021/01/26 01:40:31;;;;;;;10.25;5.47;;;;;;;3.62;48.96;100700.47;5045018;28;20041;-69
2021/01/26 01:42:58;;;;;;;10.20;5.45;;;;;;;3.61;48.63;100696.06;5054498;28;20064;-69
2021/01/26 01:45:27;;;;;;;8.93;5.53;;;;;;;3.62;48.64;100708.59;5062379;28;20037;-69
2021/01/26 01:47:59;;;;;;;9.23;5.28;;;;;;;3.63;48.90;100713.03;5052808;28;20053;-69
2021/01/26 01:50:31;;;;;;;10.63;5.20;;;;;;;3.62;49.01;100708.59;5049574;28;20092;-69
2021/01/26 01:53:04;;;;;;;8.85;5.10;;;;;;;3.61;49.21;100708.69;5062575;28;20037;-69
2021/01/26 01:55:37;;;;;;;9.38;4.82;;;;;;;3.62;48.88;100710.41;5053797;28;20040;-69
2021/01/26 01:58:10;;;;;;;9.70;4.75;;;;;;;3.63;49.11;100707.63;5057107;28;20047;-69
2021/01/26 02:00:38;;;;;;;8.25;4.90;;;;;;;3.63;48.93;100713.03;5065244;28;20047;-69
2021/01/26 02:03:12;;;;;;;10.52;5.55;;;;;;;3.62;49.49;100708.59;5059000;28;20034;-69
2021/01/26 02:05:40;;;;;;;7.78;4.93;;;;;;;3.63;48.70;100707.63;5064696;28;20044;-69
2021/01/26 02:08:20;;;;;;;9.25;5.22;;;;;;;3.65;49.18;100712.94;5060743;28;20499;-69
2021/01/26 02:10:47;;;;;;;10.55;4.47;;;;;;;3.64;48.92;100722.03;5064202;28;20037;-69
2021/01/26 02:13:15;;;;;;;8.32;5.03;;;;;;;3.65;48.79;100718.34;5057632;28;20047;-69
2021/01/26 02:15:43;;;;;;;7.05;4.50;;;;;;;3.65;48.69;100727.34;5060452;28;20040;-69
2021/01/26 02:18:24;;;;;;;8.07;5.10;;;;;;;3.67;49.62;100720.03;5053795;28;20041;-69
2021/01/26 02:21:14;;;;;;;8.35;4.20;;;;;;;3.67;49.70;100722.72;5050480;28;20503;-70
2021/01/26 02:24:22;;;;;;;7.47;4.40;;;;;;;3.67;49.71;100724.56;5058303;28;21842;-69
2021/01/26 02:27:21;;;;;;;10.10;4.78;;;;;;;3.66;49.71;100718.28;5056658;28;20491;-69
2021/01/26 02:30:30;;;;;;;8.98;5.28;;;;;;;3.64;49.83;100724.72;5053794;28;20058;-69
2021/01/26 02:33:30;;;;;;;7.45;4.85;;;;;;;3.66;49.57;100723.69;5066310;28;20121;-69
2021/01/26 02:36:36;;;;;;;9.82;4.40;;;;;;;3.67;49.69;100728.13;5060289;28;20472;-69
2021/01/26 02:39:29;;;;;;;9.02;4.78;;;;;;;3.67;49.62;100722.72;5067268;28;20048;-69
2021/01/26 02:42:07;;;;;;;9.00;4.47;;;;;;;3.66;49.72;100723.69;5057263;28;20037;-69
2021/01/26 02:44:40;;;;;;;7.40;4.70;;;;;;;3.68;49.37;100721.75;5054525;28;20047;-69
2021/01/26 02:47:18;;;;;;;10.32;4.60;;;;;;;3.67;49.31;100725.44;5058200;28;20126;-69
2021/01/26 02:49:52;;;;;;;7.75;4.20;;;;;;;3.70;49.37;100735.19;5057232;28;20071;-69
2021/01/26 02:52:30;;;;;;;8.55;4.57;;;;;;;3.71;49.66;100739.63;5055208;28;20036;-69
2021/01/26 02:55:02;;;;;;;9.02;4.57;;;;;;;3.69;49.41;100745.16;5060112;28;20434;-69
2021/01/26 02:57:35;;;;;;;7.28;4.35;;;;;;;3.69;49.58;100744.28;5062534;28;20042;-69
2021/01/26 03:00:11;;;;;;;6.60;4.00;;;;;;;3.69;49.57;100755.97;5062076;28;20392;-69
2021/01/26 03:02:44;;;;;;;9.77;4.95;;;;;;;3.71;49.44;100766.69;5057860;28;20047;-69
2021/01/26 03:05:15;;;;;;;;;;;;;;;3.48;50.27;100764.44;5057536;28;20045;-69
2021/01/26 03:07:54;;;;;;;7.10;4.05;;;;;;;3.67;49.95;100760.59;5062324;28;19921;-69
2021/01/26 03:10:28;;;;;;;10.07;4.65;;;;;;;3.70;49.36;100754.09;5059656;28;20049;-69
2021/01/26 03:12:59;;;;;;;7.10;3.80;;;;;;;3.70;49.44;100751.41;5059213;28;20044;-69
2021/01/26 03:15:33;;;;;;;7.35;4.15;;;;;;;3.72;49.26;100763.00;5056947;28;20075;-69
2021/01/26 03:18:05;;;;;;;6.75;3.60;;;;;;;3.70;49.31;100760.41;5058035;28;20041;-69
2021/01/26 03:20:36;;;;;;;7.00;4.28;;;;;;;3.73;49.18;100759.34;5059475;28;20079;-69
2021/01/26 03:23:08;;;;;;;6.47;4.00;;;;;;;3.75;49.56;100753.84;5052321;28;20052;-69
2021/01/26 03:25:40;;;;;;;7.90;4.38;;;;;;;3.74;49.47;100752.09;5064768;28;20037;-69
2021/01/26 03:28:11;;;;;;;5.28;3.60;;;;;;;3.77;49.47;100760.06;5065694;28;20052;-70
2021/01/26 03:30:42;;;;;;;8.85;4.20;;;;;;;3.77;49.21;100751.94;5056887;28;20044;-69
2021/01/26 03:33:12;;;;;;;9.73;3.88;;;;;;;3.77;49.46;100751.94;5062065;28;20445;-69
2021/01/26 03:35:39;;;;;;;7.57;3.30;;;;;;;3.77;49.39;100763.63;5062263;28;20036;-69
2021/01/26 03:38:11;;;;;;;10.65;4.40;;;;;;;3.79;49.55;100758.09;5072996;28;20036;-69
2021/01/26 03:40:39;;;;;;;8.60;4.10;;;;;;;3.81;49.36;100761.59;5056536;28;20049;-69
2021/01/26 03:43:07;;;;;;;7.80;3.70;;;;;;;3.79;49.19;100761.69;5056373;28;20056;-68
2021/01/26 03:45:35;;;;;;;9.20;3.97;;;;;;;3.80;49.34;100758.03;5062435;28;20041;-68
2021/01/26 03:48:20;;;;;;;8.48;3.75;;;;;;;3.83;50.01;100759.69;5058187;28;20108;-68
2021/01/26 03:50:58;;;;;;;7.60;3.80;;;;;;;3.80;49.57;100781.50;5054102;28;20037;-68
2021/01/26 03:53:55;;;;;;;5.82;3.83;;;;;;;3.81;49.94;100775.13;5067486;28;20040;-68
2021/01/26 03:56:34;;;;;;;7.10;3.90;;;;;;;3.76;49.90;100778.13;5056950;28;20041;-68
2021/01/26 03:59:15;;;;;;;6.72;3.50;;;;;;;3.78;49.95;100770.78;5061853;28;20099;-68
2021/01/26 04:01:46;;;;;;;7.28;3.15;;;;;;;3.78;49.31;100776.19;5062814;28;20049;-68
2021/01/26 04:04:21;;;;;;;7.63;3.17;;;;;;;3.76;50.14;100785.38;5045160;28;20045;-68
2021/01/26 04:06:52;;;;;;;5.55;3.10;;;;;;;3.80;49.65;100800.44;5057851;28;20040;-68
2021/01/26 04:09:23;;;;;;;6.20;2.72;;;;;;;3.81;49.66;100786.81;5058728;28;20457;-68
2021/01/26 04:12:00;;;;;;;5.38;2.70;;;;;;;3.82;49.72;100791.28;5058496;28;20484;-69
2021/01/26 04:14:30;;;;;;;6.00;3.10;;;;;;;3.83;49.74;100786.75;5064230;28;20396;-69
2021/01/26 04:17:12;;;;;;;6.95;3.20;;;;;;;3.83;49.63;100784.91;5053241;28;20037;-68
2021/01/26 04:19:44;;;;;;;8.80;3.53;;;;;;;3.84;49.61;100791.19;5052206;28;20416;-69
2021/01/26 04:22:13;;;;;;;6.55;3.80;;;;;;;3.83;49.59;100795.72;5053972;28;20053;-68
2021/01/26 04:24:41;;;;;;;6.63;3.70;;;;;;;3.83;49.52;100805.69;5058650;28;20040;-68
2021/01/26 04:27:15;;;;;;;6.80;3.55;;;;;;;3.86;49.82;100821.75;5060823;28;20045;-68
2021/01/26 04:29:43;;;;;;;8.70;4.15;;;;;;;3.84;49.44;100823.66;5061787;28;20099;-68
2021/01/26 04:32:10;;;;;;;7.25;3.83;;;;;;;3.83;49.46;100822.78;5055377;28;20044;-68
2021/01/26 04:34:37;;;;;;;6.95;3.90;;;;;;;3.82;49.50;100826.44;5064494;28;20048;-68
2021/01/26 04:37:04;;;;;;;7.47;3.70;;;;;;;3.83;49.40;100833.59;5059630;28;20095;-68
2021/01/26 04:39:31;;;;;;;8.57;3.80;;;;;;;3.82;49.43;100847.22;5059950;28;20338;-68
2021/01/26 04:42:05;;;;;;;6.57;3.10;;;;;;;3.85;49.90;100853.34;5055841;28;20045;-68
2021/01/26 04:44:54;;;;;;;5.20;3.25;;;;;;;3.85;50.05;100858.75;5053833;28;20547;-70
2021/01/26 04:47:26;;;;;;;6.30;3.20;;;;;;;3.84;49.94;100862.41;5051733;28;20095;-69
2021/01/26 04:50:02;;;;;;;5.97;3.50;;;;;;;3.83;49.94;100857.97;5051277;28;20041;-69
2021/01/26 04:52:47;;;;;;;6.07;3.13;;;;;;;3.86;50.03;100848.81;5053130;28;20438;-69
2021/01/26 04:55:28;;;;;;;4.40;2.60;;;;;;;3.85;50.00;100855.16;5055061;28;20049;-68
2021/01/26 04:58:31;;;;;;;7.97;3.42;;;;;;;3.80;49.99;100849.13;5061082;28;20052;-68
2021/01/26 05:01:13;;;;;;;5.68;3.15;;;;;;;3.81;49.68;100861.72;5026228;28;20051;-68
2021/01/26 05:04:02;;;;;;;6.57;3.50;;;;;;;3.82;49.93;100864.34;5052944;28;20143;-68
2021/01/26 05:06:34;;;;;;;5.38;3.33;;;;;;;3.81;49.50;100876.13;5049169;28;20102;-68
2021/01/26 05:09:08;;;;;;;6.23;3.07;;;;;;;3.78;49.51;100873.59;5051476;28;20057;-68
2021/01/26 05:11:37;;;;;;;5.07;3.30;;;;;;;3.79;49.16;100874.44;5057162;28;20289;-68
2021/01/26 05:14:13;;;;;;;7.43;3.35;;;;;;;3.79;49.57;100882.56;5035196;28;20049;-68
2021/01/26 05:16:47;;;;;;;5.95;3.20;;;;;;;3.78;49.46;100875.44;5050288;28;20071;-68
2021/01/26 05:19:20;;;;;;;6.07;3.47;;;;;;;3.77;49.83;100884.50;5043610;28;20485;-68
2021/01/26 05:21:54;;;;;;;8.05;4.05;;;;;;;3.74;49.62;100877.44;5061455;28;20079;-68
2021/01/26 05:24:28;;;;;;;5.55;3.15;;;;;;;3.74;49.35;100882.84;5047762;28;20095;-68
2021/01/26 05:26:55;;;;;;;7.05;3.60;;;;;;;3.74;49.59;100890.09;5052381;28;20141;-68
2021/01/26 05:29:22;;;;;;;5.53;3.38;;;;;;;3.73;49.32;100886.50;5048750;28;20099;-68
2021/01/26 05:31:57;;;;;;;6.53;3.50;;;;;;;3.75;50.02;100891.84;5049926;28;20389;-68
2021/01/26 05:34:26;;;;;;;5.68;3.22;;;;;;;3.72;49.68;100905.53;5048261;28;20036;-67
2021/01/26 05:36:53;;;;;;;8.18;2.80;;;;;;;3.73;49.82;100900.03;5060143;28;20034;-68
2021/01/26 05:39:24;;;;;;;7.25;3.10;;;;;;;3.75;49.87;100892.72;5059470;28;20127;-68
2021/01/26 05:41:52;;;;;;;6.90;2.70;;;;;;;3.74;49.59;100893.66;5068978;28;20048;-68
2021/01/26 05:44:20;;;;;;;8.05;3.13;;;;;;;3.74;49.95;100890.09;5056924;28;20048;-68
2021/01/26 05:46:48;;;;;;;7.72;2.70;;;;;;;3.75;49.64;100906.25;5055991;28;20036;-67
2021/01/26 05:49:34;;;;;;;5.45;2.80;;;;;;;3.75;50.34;100910.78;5048892;28;20091;-68
2021/01/26 05:52:03;;;;;;;5.40;2.40;;;;;;;3.74;49.77;100914.44;5058102;28;20049;-67
2021/01/26 05:54:34;;;;;;;7.72;3.05;;;;;;;3.74;50.04;100920.72;5050280;28;20028;-68
2021/01/26 05:57:02;;;;;;;5.07;2.50;;;;;;;3.74;49.72;100922.56;5061323;28;20052;-68
2021/01/26 05:59:31;;;;;;;7.53;3.20;;;;;;;3.74;49.69;100926.13;5055297;28;20047;-68
2021/01/26 06:02:14;;;;;;;6.63;2.90;;;;;;;3.76;50.45;100926.06;5052302;28;20045;-68
2021/01/26 06:04:43;;;;;;;7.35;2.88;;;;;;;3.73;49.87;100928.91;5043476;28;20052;-68
2021/01/26 06:07:20;;;;;;;6.68;2.63;;;;;;;3.77;50.32;100933.22;5048079;28;20114;-68
2021/01/26 06:09:48;;;;;;;5.32;2.60;;;;;;;3.74;49.79;100928.84;5059323;28;20041;-67
2021/01/26 06:12:20;;;;;;;6.25;2.30;;;;;;;3.77;50.06;100933.22;5035994;28;20106;-68
2021/01/26 06:15:01;;;;;;;6.53;2.53;;;;;;;3.77;50.06;100934.09;5055243;28;20124;-68
2021/01/26 06:17:30;;;;;;;3.70;2.50;;;;;;;3.77;49.93;100938.63;5049860;28;20037;-68
2021/01/26 06:20:15;;;;;;;5.22;2.60;;;;;;;3.81;50.52;100940.19;5047343;28;20036;-68
2021/01/26 06:22:42;;;;;;;7.05;3.00;;;;;;;3.77;50.06;100947.63;5044787;28;20048;-68
2021/01/26 06:25:19;;;;;;;7.28;2.85;;;;;;;3.81;49.83;100935.66;5048566;28;20096;-68
2021/01/26 06:28:04;;;;;;;7.03;2.58;;;;;;;3.82;50.32;100939.22;5050679;28;20499;-68
2021/01/26 06:30:43;;;;;;;7.50;2.80;;;;;;;3.82;50.26;100940.09;5041143;28;20037;-68
2021/01/26 06:33:37;;;;;;;6.57;2.60;;;;;;;3.81;50.39;100954.59;5058274;28;20040;-68
2021/01/26 06:36:22;;;;;;;;;;;;;;;3.57;50.97;100964.91;5047942;28;20049;-68
2021/01/26 06:39:06;;;;;;;4.82;2.55;;;;;;;3.79;50.27;100963.75;5051684;28;20023;-68
2021/01/26 06:41:45;;;;;;;6.90;2.80;;;;;;;3.80;50.14;100960.94;5046084;28;20144;-68
2021/01/26 06:44:29;;;;;;;7.88;2.50;;;;;;;3.82;50.55;100971.69;5046365;28;20092;-67
2021/01/26 06:47:27;;;;;;;6.15;2.63;;;;;;;3.80;50.57;100977.19;5042828;28;20106;-68
2021/01/26 06:50:03;;;;;;;5.55;2.55;;;;;;;3.81;49.94;100981.63;5045014;28;20033;-68
2021/01/26 06:52:42;;;;;;;6.10;2.80;;;;;;;3.81;50.10;100984.34;5048656;28;20052;-68
2021/01/26 06:55:30;;;;;;;3.85;2.47;;;;;;;3.81;50.36;100981.63;5047353;28;20045;-68
2021/01/26 06:58:14;;;;;;;4.53;2.40;;;;;;;3.82;50.56;100985.22;5062596;28;20037;-67
2021/01/26 07:00:55;;;;;;;6.85;2.65;;;;;;;3.81;50.43;100994.28;5071589;28;20052;-68
2021/01/26 07:03:59;;;;;;;7.30;2.75;;;;;;;3.80;50.82;100993.41;5060950;28;20524;-69
2021/01/26 07:06:41;;;;;;;6.45;3.00;;;;;;;3.78;50.65;100995.38;5039473;28;20068;-68
2021/01/26 07:09:22;;;;;;;5.38;2.30;;;;;;;3.81;50.12;100997.00;5056667;28;20047;-68
2021/01/26 07:12:31;;;;;;;7.63;2.60;;;;;;;3.81;50.86;101005.13;5059113;28;20496;-68
2021/01/26 07:15:15;;;;;;;7.28;2.60;;;;;;;3.78;50.52;101008.88;5057945;28;20045;-66
2021/01/26 07:17:59;;;;;;;6.28;2.67;;;;;;;3.80;50.52;101009.66;5055433;28;20040;-67
2021/01/26 07:20:34;;;;;;;6.82;2.50;;;;;;;3.81;50.57;101006.00;5055231;28;20124;-67
2021/01/26 07:23:19;;;;;;;5.38;3.00;;;;;;;3.83;50.41;101005.91;5056993;28;20153;-66
2021/01/26 07:26:10;;;;;;;7.40;3.13;;;;;;;3.82;50.98;101009.56;5055827;28;20032;-66
2021/01/26 07:28:59;;;;;;;6.15;3.00;;;;;;;3.80;50.68;101008.78;5052224;28;20121;-67
2021/01/26 07:31:33;;;;;;;7.38;3.45;;;;;;;3.79;50.32;101018.72;5062866;28;20056;-69
2021/01/26 07:34:06;;;;;;;7.40;3.20;;;;;;;3.81;50.56;101030.34;5064185;28;20033;-69
2021/01/26 07:36:36;;;;;;;6.90;2.95;;;;;;;3.83;50.03;101035.69;5056516;28;20040;-68
2021/01/26 07:39:11;;;;;;;6.93;3.20;;;;;;;3.82;50.42;101032.09;5052866;28;20048;-68
2021/01/26 07:41:57;;;;;;;10.48;3.72;;;;;;;3.83;50.70;101041.09;5064189;28;20057;-69
2021/01/26 07:44:34;;;;;;;5.60;3.50;;;;;;;3.83;50.56;101052.78;5055596;28;20048;-69
2021/01/26 07:47:10;;;;;;;6.35;3.40;;;;;;;3.83;50.32;101060.03;5058805;28;20056;-68
2021/01/26 07:49:43;;;;;;;6.13;3.75;;;;;;;3.82;50.48;101058.28;5048479;28;20120;-68
2021/01/26 07:52:10;;;;;;;8.77;4.30;;;;;;;3.79;50.03;101055.72;5057794;28;20052;-68
2021/01/26 07:54:44;;;;;;;7.88;3.78;;;;;;;3.81;50.49;101068.22;5056472;28;20049;-69
2021/01/26 07:57:11;;;;;;;6.38;3.72;;;;;;;3.79;50.21;101062.03;5059541;28;20063;-69
2021/01/26 07:59:44;;;;;;;6.55;3.67;;;;;;;3.82;50.48;101063.69;5057003;28;20044;-69
2021/01/26 08:02:18;;;;;;;7.88;4.38;;;;;;;3.82;50.51;101071.81;5061092;28;20051;-68
2021/01/26 08:04:46;;;;;;;8.52;4.38;;;;;;;3.82;50.19;101069.09;5062801;28;20101;-69
2021/01/26 08:07:24;;;;;;;6.65;3.92;;;;;;;3.83;50.57;101074.44;5059399;28;20404;-68
2021/01/26 08:09:53;;;;;;;6.13;4.47;;;;;;;3.81;50.32;101070.94;5055820;28;20122;-68
2021/01/26 08:12:38;;;;;;;7.78;4.38;;;;;;;3.82;50.25;101086.22;5045184;28;20637;-69
2021/01/26 08:15:28;;;;;;;7.00;3.35;;;;;;;3.83;51.42;101085.25;5054902;28;20518;-71
2021/01/26 08:17:56;;;;;;;6.40;3.72;;;;;;;3.83;50.94;101087.97;5055222;28;20040;-69
2021/01/26 08:20:34;;;;;;;6.90;4.25;;;;;;;3.87;50.97;101086.81;5045142;28;20033;-69
2021/01/26 08:23:27;;;;;;;8.35;4.38;;;;;;;3.93;51.23;101101.88;5057080;28;20496;-70
2021/01/26 08:25:55;;;;;;;6.72;3.95;;;;;;;3.93;50.59;101107.28;5049972;28;20121;-70
2021/01/26 08:28:50;;;;;;;6.40;3.67;;;;;;;3.94;51.12;101106.34;5050332;28;20059;-70
2021/01/26 08:31:29;;;;;;;5.72;3.53;;;;;;;4.00;51.09;101116.81;5011744;28;20144;-69
2021/01/26 08:34:17;;;;;;;6.40;3.83;;;;;;;4.00;50.65;101122.22;5034043;28;20049;-69
2021/01/26 08:36:44;;;;;;;5.50;3.65;;;;;;;3.99;50.45;101134.00;5050321;28;20051;-68
2021/01/26 08:39:39;;;;;;;8.07;4.07;;;;;;;4.01;50.98;101126.69;5052811;28;20041;-68
2021/01/26 08:42:08;;;;;;;9.10;3.78;;;;;;;3.99;50.43;101126.78;5050946;28;20113;-68
2021/01/26 08:44:53;;;;;;;7.72;3.42;;;;;;;4.00;51.05;101142.06;5063255;28;20036;-68
2021/01/26 08:47:50;;;;;;;6.28;3.33;;;;;;;3.97;50.86;101139.50;5052803;28;20048;-68
2021/01/26 08:50:25;;;;;;;5.70;3.20;;;;;;;4.00;50.40;101147.47;5051852;28;20048;-69
2021/01/26 08:52:57;;;;;;;6.63;3.05;;;;;;;4.00;50.47;101149.31;5051509;28;20132;-69
2021/01/26 08:55:39;;;;;;;6.05;3.33;;;;;;;4.02;51.06;101152.81;5059388;28;20056;-70
2021/01/26 08:58:10;;;;;;;6.22;3.72;;;;;;;3.98;50.63;101149.38;5071836;28;20036;-70
2021/01/26 09:00:43;;;;;;;7.55;3.67;;;;;;;4.02;50.71;101152.81;5053860;28;20049;-70
2021/01/26 09:03:37;;;;;;;8.88;4.28;;;;;;;4.01;50.84;101156.47;5043155;28;20401;-69
2021/01/26 09:06:07;;;;;;;8.10;4.00;;;;;;;3.97;50.56;101161.16;5058719;28;20041;-69
2021/01/26 09:08:55;;;;;;;7.07;4.18;;;;;;;4.00;51.09;101157.41;5047642;28;20128;-69
2021/01/26 09:11:31;;;;;;;8.60;3.88;;;;;;;3.98;50.73;101170.16;5052194;28;20061;-68
2021/01/26 09:14:23;;;;;;;7.40;3.75;;;;;;;4.01;51.06;101184.41;5055393;28;20051;-69
2021/01/26 09:16:57;;;;;;;6.70;3.90;;;;;;;4.00;50.89;101176.38;5049672;28;20041;-68
2021/01/26 09:19:31;;;;;;;6.63;3.70;;;;;;;4.00;50.82;101179.94;5050619;28;20053;-68
2021/01/26 09:22:12;;;;;;;9.15;3.78;;;;;;;4.02;50.92;101196.13;5053210;28;20036;-68
2021/01/26 09:24:40;;;;;;;6.15;3.65;;;;;;;3.99;50.43;101202.56;5056067;28;20051;-68
2021/01/26 09:27:23;;;;;;;9.02;3.63;;;;;;;4.00;51.07;101204.31;5050551;28;20059;-69
2021/01/26 09:30:09;;;;;;;6.57;3.58;;;;;;;3.97;51.22;101196.34;5059096;28;20451;-69
2021/01/26 09:32:37;;;;;;;6.40;3.55;;;;;;;3.98;50.61;101213.47;5045013;28;20091;-68
2021/01/26 09:35:23;;;;;;;7.88;3.90;;;;;;;4.01;51.44;101207.91;5051619;28;20150;-67
2021/01/26 09:38:09;;;;;;;7.50;3.35;;;;;;;4.01;51.09;101219.59;5054677;28;20500;-67
2021/01/26 09:40:40;;;;;;;8.18;3.55;;;;;;;4.00;50.74;101219.69;5051108;28;20036;-68
2021/01/26 09:43:13;;;;;;;7.03;3.38;;;;;;;4.02;50.88;101224.06;5069643;28;20047;-68
2021/01/26 09:45:41;;;;;;;8.50;3.40;;;;;;;4.01;50.77;101218.72;5055281;28;20037;-68
2021/01/26 09:48:13;;;;;;;6.38;3.47;;;;;;;4.03;50.65;101222.19;5057661;28;20094;-67
2021/01/26 09:50:41;;;;;;;7.53;4.00;;;;;;;4.04;51.12;101232.06;5054532;28;20032;-67
2021/01/26 09:53:10;;;;;;;8.30;3.80;;;;;;;4.04;50.78;101246.50;5058679;28;20051;-67
2021/01/26 09:55:38;;;;;;;5.93;3.47;;;;;;;4.06;50.83;101241.00;5056259;28;20086;-66
2021/01/26 09:58:06;;;;;;;5.82;3.72;;;;;;;4.06;50.99;101250.00;5052452;28;20041;-68
2021/01/26 10:00:34;;;;;;;7.53;4.03;;;;;;;4.08;50.94;101258.91;5057802;28;20102;-68
2021/01/26 10:03:02;;;;;;;6.88;3.45;;;;;;;4.10;50.70;101258.84;5060286;28;20045;-69
2021/01/26 10:05:30;;;;;;;6.82;3.53;;;;;;;4.10;50.79;101261.56;5039950;28;20033;-67
2021/01/26 10:08:07;;;;;;;7.72;3.50;;;;;;;4.14;51.31;101265.84;5057942;28;20415;-67
2021/01/26 10:10:36;;;;;;;4.68;2.85;;;;;;;4.13;50.78;101268.63;5052205;28;20445;-67
2021/01/26 10:13:26;;;;;;;6.47;3.42;;;;;;;4.14;51.61;101273.06;5057852;28;20128;-67
2021/01/26 10:15:55;;;;;;;6.45;3.47;;;;;;;4.13;50.93;101280.31;5066565;28;20043;-67
2021/01/26 10:18:25;;;;;;;7.28;4.00;;;;;;;4.15;50.83;101282.94;5058175;28;20510;-69
2021/01/26 10:21:02;;;;;;;5.50;3.17;;;;;;;4.17;51.05;101283.75;5057433;28;20041;-69
2021/01/26 10:23:47;;;;;;;5.47;3.67;;;;;;;4.16;51.12;101279.28;5047653;28;20673;-67
2021/01/26 10:27:06;;;;;;;6.97;3.15;;;;;;;4.17;51.21;101286.47;5046189;28;20036;-68
2021/01/26 10:29:39;;;;;;;5.65;3.25;;;;;;;4.14;51.23;101286.63;5031316;28;20045;-66
2021/01/26 10:32:08;;;;;;;7.03;3.50;;;;;;;4.16;50.96;101290.13;5056512;28;20131;-68
2021/01/26 10:34:41;;;;;;;7.05;3.92;;;;;;;4.18;51.09;101293.63;5047897;28;20045;-67
2021/01/26 10:37:30;;;;;;;7.72;4.07;;;;;;;4.17;51.96;101278.34;5045861;28;20029;-67
2021/01/26 10:40:11;;;;;;;6.68;3.70;;;;;;;4.18;51.35;101294.50;5051722;28;20041;-67
2021/01/26 10:42:40;;;;;;;6.30;3.33;;;;;;;4.18;50.67;101291.81;5055085;28;20512;-67
2021/01/26 10:45:10;;;;;;;8.32;3.72;;;;;;;4.19;50.98;101289.97;5055524;28;20103;-67
2021/01/26 10:47:41;;;;;;;6.40;3.70;;;;;;;4.21;51.24;101290.75;5053930;28;20110;-67
2021/01/26 10:50:12;;;;;;;7.88;3.60;;;;;;;4.21;51.13;101293.44;5050521;28;20037;-68
2021/01/26 10:52:42;;;;;;;6.47;3.53;;;;;;;4.22;51.14;101295.22;5065302;28;20043;-68
2021/01/26 10:55:14;;;;;;;6.10;3.33;;;;;;;4.25;51.45;101300.47;5054518;28;20171;-67
2021/01/26 10:57:42;;;;;;;6.53;3.67;;;;;;;4.24;51.05;101296.88;5054269;28;20098;-67
2021/01/26 11:00:12;;;;;;;5.68;3.58;;;;;;;4.27;51.19;101295.84;5054575;28;20040;-67
2021/01/26 11:02:56;;;;;;;6.63;3.63;;;;;;;4.28;51.71;101301.16;5063422;28;20037;-67
2021/01/26 11:05:25;;;;;;;5.18;3.30;;;;;;;4.29;51.24;101302.91;5075271;28;20075;-67
2021/01/26 11:07:52;;;;;;;7.85;3.63;;;;;;;4.30;51.01;101299.25;5064674;28;20150;-68
2021/01/26 11:10:20;;;;;;;6.03;3.55;;;;;;;4.33;51.09;101299.09;5054242;28;20049;-67
2021/01/26 11:12:47;;;;;;;6.50;3.90;;;;;;;4.35;51.26;101304.44;5061291;28;20048;-67
2021/01/26 11:15:17;;;;;;;6.47;3.92;;;;;;;4.38;51.43;101309.69;5073786;28;20450;-68
2021/01/26 11:17:46;;;;;;;7.40;3.75;;;;;;;4.38;51.21;101304.25;5062397;28;20412;-68
2021/01/26 11:20:13;;;;;;;7.88;4.50;;;;;;;4.40;51.08;101311.38;5054226;28;20483;-67
2021/01/26 11:22:40;;;;;;;8.52;3.78;;;;;;;4.42;51.37;101312.16;5059913;28;20032;-68
2021/01/26 11:25:09;;;;;;;5.10;3.45;;;;;;;4.46;51.35;101299.31;5074960;28;20102;-68
2021/01/26 11:27:38;;;;;;;8.05;4.05;;;;;;;4.49;51.38;101301.00;5069460;28;20041;-68
2021/01/26 11:30:07;;;;;;;6.40;3.85;;;;;;;4.51;51.47;101299.97;5051624;28;20044;-68
2021/01/26 11:32:35;;;;;;;5.85;3.67;;;;;;;4.52;51.32;101300.84;5049696;28;20124;-67
2021/01/26 11:35:04;;;;;;;6.20;3.65;;;;;;;4.55;51.32;101308.78;5062172;28;20576;-67
2021/01/26 11:37:32;;;;;;;5.85;3.38;;;;;;;4.55;51.40;101304.25;5042838;28;20121;-68
2021/01/26 11:39:59;;;;;;;6.85;3.40;;;;;;;4.58;51.36;101303.19;5062120;28;20033;-68
2021/01/26 11:42:26;;;;;;;5.88;3.38;;;;;;;4.61;51.48;101308.44;5056895;28;20052;-68
2021/01/26 11:44:55;;;;;;;5.68;3.63;;;;;;;4.62;51.38;101310.19;5070868;28;20051;-67
2021/01/26 11:47:23;;;;;;;5.63;3.80;;;;;;;4.64;51.15;101316.41;5068939;28;20388;-68
2021/01/26 11:49:50;;;;;;;7.03;3.92;;;;;;;4.66;51.28;101317.22;5052596;28;20038;-68
2021/01/26 11:52:18;;;;;;;7.32;3.72;;;;;;;4.69;51.11;101325.16;5040262;28;20498;-68
2021/01/26 11:54:45;;;;;;;7.47;3.55;;;;;;;4.72;51.16;101322.28;5063113;28;20070;-69
2021/01/26 11:57:12;;;;;;;6.07;3.55;;;;;;;4.74;51.11;101323.09;5062976;28;20052;-68
2021/01/26 11:59:41;;;;;;;9.18;4.35;;;;;;;4.74;51.13;101321.25;5065179;28;20047;-68
2021/01/26 12:02:09;;;;;;;8.63;3.88;;;;;;;4.78;51.30;101317.41;5063018;28;20487;-68
2021/01/26 12:04:36;;;;;;;5.88;3.22;;;;;;;4.80;51.26;101322.75;5064552;28;20073;-68
2021/01/26 12:07:04;;;;;;;6.80;3.60;;;;;;;4.80;51.21;101318.19;5059640;28;20492;-68